createdAt,value
2023-05-21T00:01:08.539Z,99103.70
2023-05-21T00:06:09.973Z,99105.06
2023-05-21T00:11:11.508Z,99096.35
2023-05-21T00:16:13.115Z,99098.40
2023-05-21T00:21:16.640Z,99099.97
2023-05-21T00:26:17.945Z,99095.54
2023-05-21T00:31:19.797Z,99094.96
2023-05-21T00:36:23.372Z,99095.95
2023-05-21T00:41:25.413Z,99092.59
2023-05-21T00:46:28.034Z,99093.13
2023-05-21T00:51:29.819Z,99091.25
2023-05-21T00:56:31.946Z,99087.83
2023-05-21T01:01:36.263Z,99079.48
2023-05-21T01:06:38.189Z,99075.13
2023-05-21T01:12:39.452Z,99068.27
2023-05-21T01:19:00.518Z,99062.09
2023-05-21T01:25:21.562Z,99060.59
2023-05-21T01:31:42.833Z,99056.80
2023-05-21T01:38:06.625Z,99047.62
2023-05-21T01:44:37.733Z,99044.00
2023-05-21T01:50:58.782Z,99043.92
2023-05-21T01:56:22.517Z,99037.65
2023-05-21T02:01:23.795Z,99031.50
2023-05-21T02:06:25.242Z,99037.27
2023-05-21T02:11:26.594Z,99036.80
2023-05-21T02:16:28.096Z,99033.70
2023-05-21T02:21:29.486Z,99027.52
2023-05-21T02:26:30.807Z,99030.91
2023-05-21T02:31:32.108Z,99032.39
2023-05-21T02:36:35.607Z,99029.02
2023-05-21T02:41:37.586Z,99030.88
2023-05-21T02:46:39.456Z,99023.87
2023-05-21T02:51:41.421Z,99019.09
2023-05-21T02:56:42.850Z,99013.02
2023-05-21T03:01:44.600Z,99007.44
2023-05-21T03:06:46.086Z,99004.55
2023-05-21T03:11:48.080Z,99000.77
2023-05-21T03:16:50.912Z,99000.11
2023-05-21T03:21:53.395Z,98999.56
2023-05-21T03:26:56.516Z,99004.63
2023-05-21T03:32:00.857Z,99002.73
2023-05-21T03:37:02.687Z,99003.13
2023-05-21T03:42:04.627Z,98999.16
2023-05-21T03:47:19.952Z,99005.50
2023-05-21T03:52:22.361Z,99000.84
2023-05-21T03:57:23.718Z,98995.27
2023-05-21T04:02:26.562Z,99005.38
2023-05-21T04:07:29.382Z,99006.66
2023-05-21T04:12:31.104Z,99007.64
2023-05-21T04:17:34.121Z,99011.89
2023-05-21T04:22:36.721Z,99019.16
2023-05-21T04:27:38.059Z,99018.02
2023-05-21T04:32:39.498Z,99014.73
2023-05-21T04:37:42.266Z,99013.58
2023-05-21T04:42:46.198Z,99016.25
2023-05-21T04:47:48.175Z,99022.30
2023-05-21T04:52:49.732Z,99029.34
2023-05-21T04:57:52.243Z,99028.23
2023-05-21T05:02:53.865Z,99031.57
2023-05-21T05:07:57.628Z,99034.23
2023-05-21T05:12:59.447Z,99028.48
2023-05-21T05:18:02.615Z,99028.31
2023-05-21T05:23:04.383Z,99029.56
2023-05-21T05:28:06.127Z,99031.05
2023-05-21T05:33:07.854Z,99032.91
2023-05-21T05:38:09.990Z,99029.02
2023-05-21T05:43:11.668Z,99027.67
2023-05-21T05:48:13.303Z,99026.91
2023-05-21T05:54:14.520Z,99025.41
2023-05-21T06:00:35.712Z,99030.38
2023-05-21T06:06:57.726Z,99031.69
2023-05-21T06:13:18.780Z,99027.60
2023-05-21T06:19:39.961Z,99023.73
2023-05-21T06:25:01.203Z,99026.98
2023-05-21T06:30:02.754Z,99014.33
2023-05-21T06:35:05.657Z,99008.77
2023-05-21T06:40:07.463Z,99000.30
2023-05-21T06:45:09.233Z,98997.92
2023-05-21T06:50:13.594Z,98996.34
2023-05-21T06:55:15.296Z,98997.64
2023-05-21T07:00:37.779Z,98991.07
2023-05-21T07:05:39.515Z,98985.90
2023-05-21T07:10:41.842Z,98977.96
2023-05-21T07:15:43.994Z,98971.92
2023-05-21T07:20:45.922Z,98974.36
2023-05-21T07:32:54.778Z,98975.69
2023-05-21T07:39:40.016Z,98977.77
2023-05-21T07:46:31.818Z,98985.25
2023-05-21T07:53:23.663Z,98975.88
2023-05-21T07:59:48.164Z,98973.49
2023-05-21T08:06:10.300Z,98965.85
2023-05-21T08:12:52.038Z,98968.98
2023-05-21T08:19:19.696Z,98965.98
2023-05-21T08:25:19.859Z,98962.30
2023-05-21T08:31:26.973Z,98962.10
2023-05-21T08:37:57.042Z,98959.76
2023-05-21T08:45:02.824Z,98961.23
2023-05-21T08:52:04.823Z,98959.02
2023-05-21T08:58:31.607Z,98955.40
2023-05-21T09:05:06.018Z,98945.35
2023-05-21T09:11:30.022Z,98941.00
2023-05-21T09:18:06.070Z,98942.19
2023-05-21T09:24:36.563Z,98934.04
2023-05-21T09:31:23.546Z,98943.40
2023-05-21T09:37:51.249Z,98931.08
2023-05-21T09:44:36.479Z,98926.27
2023-05-21T09:51:51.099Z,98921.14
2023-05-21T09:58:24.459Z,98925.04
2023-05-21T10:04:41.141Z,98925.89
2023-05-21T10:10:50.459Z,98912.83
2023-05-21T10:16:52.659Z,98917.34
2023-05-21T10:22:23.728Z,98907.00
2023-05-21T10:28:10.982Z,98904.66
2023-05-21T10:34:17.354Z,98902.10
2023-05-21T10:40:44.275Z,98889.70
2023-05-21T10:47:56.685Z,98884.46
2023-05-21T10:54:19.636Z,98878.75
2023-05-21T11:01:01.207Z,98882.96
2023-05-21T11:07:28.990Z,98876.84
2023-05-21T11:13:52.017Z,98868.73
2023-05-21T11:20:40.357Z,98873.27
2023-05-21T11:27:11.561Z,98872.37
2023-05-21T11:33:31.565Z,98875.77
2023-05-21T11:40:09.140Z,98864.71
2023-05-21T11:46:38.134Z,98857.01
2023-05-21T11:53:13.163Z,98860.92
2023-05-21T11:59:43.612Z,98853.61
2023-05-21T12:06:29.081Z,98842.23
2023-05-21T12:13:31.246Z,98845.60
2023-05-21T12:20:33.210Z,98846.25
2023-05-21T12:26:54.668Z,98836.23
2023-05-21T12:33:18.386Z,98842.13
2023-05-21T12:39:45.104Z,98835.70
2023-05-21T12:46:14.377Z,98834.97
2023-05-21T12:52:38.704Z,98831.25
2023-05-21T12:58:55.871Z,98825.33
2023-05-21T13:04:57.629Z,98823.38
2023-05-21T13:10:49.244Z,98817.23
2023-05-21T13:16:09.398Z,98813.86
2023-05-21T13:21:53.659Z,98809.49
2023-05-21T13:27:19.035Z,98807.02
2023-05-21T13:33:32.187Z,98806.64
2023-05-21T13:39:03.206Z,98803.54
2023-05-21T13:44:11.399Z,98797.14
2023-05-21T13:49:21.516Z,98792.46
2023-05-21T13:54:27.249Z,98794.90
2023-05-21T13:59:41.125Z,98792.47
2023-05-21T14:05:14.149Z,98791.63
2023-05-21T14:10:47.680Z,98782.29
2023-05-21T14:16:51.257Z,98783.14
2023-05-21T14:22:53.991Z,98785.56
2023-05-21T14:29:16.125Z,98784.23
2023-05-21T14:36:00.520Z,98791.45
2023-05-21T14:42:24.500Z,98792.35
2023-05-21T14:49:18.592Z,98792.05
2023-05-21T14:55:43.006Z,98793.84
2023-05-21T15:02:24.665Z,98794.81
2023-05-21T15:08:46.146Z,98794.34
2023-05-21T15:15:16.181Z,98797.42
2023-05-21T15:21:37.557Z,98802.20
2023-05-21T15:27:59.732Z,98798.42
2023-05-21T15:34:24.070Z,98802.66
2023-05-21T15:40:04.628Z,98801.43
2023-05-21T15:46:28.652Z,98804.83
2023-05-21T15:52:52.386Z,98806.51
2023-05-21T15:58:57.452Z,98803.76
2023-05-21T16:05:25.763Z,98801.18
2023-05-21T16:11:44.798Z,98803.90
2023-05-21T16:17:40.171Z,98812.94
2023-05-21T16:24:04.991Z,98817.48
2023-05-21T16:30:29.463Z,98812.48
2023-05-21T16:36:02.495Z,98816.02
2023-05-21T16:42:06.925Z,98812.87
2023-05-21T16:48:40.411Z,98809.35
2023-05-21T16:54:04.864Z,98816.95
2023-05-21T17:00:09.172Z,98816.06
2023-05-21T17:05:57.678Z,98819.09
2023-05-21T17:11:55.565Z,98823.85
2023-05-21T17:18:25.494Z,98824.26
2023-05-21T17:25:17.123Z,98827.75
2023-05-21T17:31:41.192Z,98832.02
2023-05-21T17:38:03.268Z,98833.04
2023-05-21T17:44:29.453Z,98834.30
2023-05-21T17:50:50.796Z,98839.06
2023-05-21T17:57:15.455Z,98840.27
2023-05-21T18:02:46.532Z,98845.14
2023-05-21T18:08:17.863Z,98843.88
2023-05-21T18:13:33.770Z,98838.48
2023-05-21T18:19:23.932Z,98839.39
2023-05-21T18:26:22.342Z,98843.64
2023-05-21T18:33:23.232Z,98849.70
2023-05-21T18:40:12.632Z,98843.83
2023-05-21T18:46:38.494Z,98842.93
2023-05-21T18:53:10.488Z,98845.14
2023-05-21T18:59:34.651Z,98856.13
2023-05-21T19:05:49.733Z,98865.02
2023-05-21T19:11:07.419Z,98872.91
2023-05-21T19:16:23.798Z,98868.96
2023-05-21T19:21:39.576Z,98871.88
2023-05-21T19:27:52.117Z,98877.83
2023-05-21T19:34:16.260Z,98877.34
2023-05-21T19:40:10.009Z,98879.02
2023-05-21T19:45:26.348Z,98876.33
2023-05-21T19:50:42.322Z,98876.36
2023-05-21T19:56:44.640Z,98879.10
2023-05-21T20:03:27.737Z,98878.36
2023-05-21T20:09:44.099Z,98871.67
2023-05-21T20:15:00.708Z,98862.98
2023-05-21T20:20:09.759Z,98857.65
2023-05-21T20:25:22.821Z,98846.03
2023-05-21T20:31:10.837Z,98843.91
2023-05-21T20:36:43.003Z,98851.86
2023-05-21T20:42:20.689Z,98848.70
2023-05-21T20:47:42.001Z,98855.39
2023-05-21T20:53:28.544Z,98858.93
2023-05-21T21:00:10.289Z,98856.73
2023-05-21T21:06:08.932Z,98853.85
2023-05-21T21:11:49.680Z,98851.33
2023-05-21T21:18:21.875Z,98850.77
2023-05-21T21:24:43.227Z,98858.46
2023-05-21T21:31:04.762Z,98855.94
2023-05-21T21:36:32.780Z,98857.30
2023-05-21T21:42:41.033Z,98858.80
2023-05-21T21:49:29.363Z,98851.17
2023-05-21T21:55:09.236Z,98851.20
2023-05-21T22:02:11.423Z,98845.34
2023-05-21T22:08:44.837Z,98839.20
2023-05-21T22:15:01.664Z,98835.76
2023-05-21T22:21:28.669Z,98832.29
2023-05-21T22:27:51.304Z,98831.23
2023-05-21T22:34:28.637Z,98835.68
2023-05-21T22:40:55.019Z,98836.88
2023-05-21T22:47:51.516Z,98837.27
2023-05-21T22:53:31.720Z,98837.60
2023-05-21T22:59:51.981Z,98837.42
2023-05-21T23:06:01.654Z,98836.58
2023-05-21T23:12:27.554Z,98830.64
2023-05-21T23:18:19.663Z,98833.81
2023-05-21T23:24:46.225Z,98838.59
2023-05-21T23:30:02.039Z,98838.38
2023-05-21T23:35:13.879Z,98836.16
2023-05-21T23:40:22.238Z,98833.19
2023-05-21T23:46:36.669Z,98830.67
2023-05-21T23:53:02.523Z,98822.75
2023-05-21T23:59:30.410Z,98818.20
